TAF and METAR

Could not understand the following METAR

YPBO 250000Z AUTO 08003KT 9999 // SCT105 19/03 Q1021
No TAF available for Paraburdoo Airport